createdAt,value
2018-11-14T00:00:38.232Z,13.50
2018-11-14T00:03:05.425Z,14.77
2018-11-14T00:05:32.577Z,14.07
2018-11-14T00:07:59.745Z,14.83
2018-11-14T00:10:26.893Z,14.33
2018-11-14T00:12:54.065Z,11.73
2018-11-14T00:15:23.234Z,13.37
2018-11-14T00:17:51.081Z,13.17
2018-11-14T00:20:18.273Z,12.03
2018-11-14T00:22:46.427Z,15.00
2018-11-14T00:25:13.663Z,16.57
2018-11-14T00:27:40.868Z,16.17
2018-11-14T00:30:09.737Z,14.03
2018-11-14T00:32:36.906Z,15.03
2018-11-14T00:35:04.421Z,12.43
2018-11-14T00:37:31.551Z,11.43
2018-11-14T00:39:58.680Z,15.13
2018-11-14T00:42:25.915Z,12.27
2018-11-14T00:44:53.061Z,11.93
2018-11-14T00:47:20.531Z,11.57
2018-11-14T00:49:47.650Z,11.37
2018-11-14T00:52:14.792Z,13.70
2018-11-14T00:54:41.992Z,13.80
2018-11-14T00:57:09.165Z,14.70
2018-11-14T00:59:36.347Z,13.67
2018-11-14T01:02:03.689Z,13.07
2018-11-14T01:04:30.769Z,14.13
2018-11-14T01:06:57.897Z,11.77
2018-11-14T01:09:25.051Z,14.27
2018-11-14T01:11:52.220Z,10.80
2018-11-14T01:14:19.366Z,12.33
2018-11-14T01:16:46.508Z,10.67
2018-11-14T01:19:13.675Z,14.87
2018-11-14T01:21:40.892Z,14.17
2018-11-14T01:24:08.221Z,15.60
2018-11-14T01:26:35.576Z,12.17
2018-11-14T01:29:02.778Z,13.03
2018-11-14T01:31:30.082Z,11.93
2018-11-14T01:33:57.357Z,18.17
2018-11-14T01:36:24.497Z,17.07
2018-11-14T01:38:51.659Z,18.93
2018-11-14T01:41:18.816Z,17.23
2018-11-14T01:43:46.010Z,12.43
2018-11-14T01:46:13.153Z,17.47
2018-11-14T01:48:40.341Z,15.40
2018-11-14T01:51:07.499Z,14.57
2018-11-14T01:53:34.669Z,23.17
2018-11-14T01:56:01.834Z,28.13
2018-11-14T01:58:29.013Z,19.37
2018-11-14T02:00:56.225Z,16.43
2018-11-14T02:03:23.393Z,21.23
2018-11-14T02:05:50.524Z,20.97
2018-11-14T02:08:17.696Z,20.80
2018-11-14T02:10:44.860Z,23.67
2018-11-14T02:13:12.053Z,19.53
2018-11-14T02:15:39.254Z,17.80
2018-11-14T02:18:06.417Z,20.70
2018-11-14T02:20:33.561Z,22.63
2018-11-14T02:23:00.764Z,16.27
2018-11-14T02:25:27.944Z,19.30
2018-11-14T02:27:55.140Z,15.03
2018-11-14T02:30:23.101Z,14.70
2018-11-14T02:32:50.327Z,16.50
2018-11-14T02:35:17.559Z,17.90
2018-11-14T02:37:45.258Z,18.53
2018-11-14T02:40:14.658Z,15.67
2018-11-14T02:42:42.014Z,14.33
2018-11-14T02:45:09.783Z,16.97
2018-11-14T02:47:36.966Z,16.80
2018-11-14T02:50:04.472Z,17.63
2018-11-14T02:52:31.626Z,21.87
2018-11-14T02:54:58.843Z,21.00
2018-11-14T02:57:25.984Z,14.63
2018-11-14T02:59:53.593Z,20.90
2018-11-14T03:02:20.844Z,23.40
2018-11-14T03:04:47.982Z,18.57
2018-11-14T03:07:15.134Z,13.30
2018-11-14T03:09:42.304Z,15.67
2018-11-14T03:12:09.501Z,28.70
2018-11-14T03:14:36.578Z,15.73
2018-11-14T03:17:03.921Z,37.83
2018-11-14T03:19:31.085Z,20.13
2018-11-14T03:21:58.278Z,18.07
2018-11-14T03:24:25.457Z,18.13
2018-11-14T03:26:52.676Z,21.07
2018-11-14T03:29:19.903Z,32.20
2018-11-14T03:31:47.073Z,28.67
2018-11-14T03:34:14.258Z,29.67
2018-11-14T03:36:41.435Z,28.63
2018-11-14T03:39:08.904Z,19.90
2018-11-14T03:41:36.220Z,22.27
2018-11-14T03:44:03.667Z,19.67
2018-11-14T03:46:30.857Z,16.17
2018-11-14T03:48:58.039Z,20.97
2018-11-14T03:51:25.199Z,18.03
2018-11-14T03:53:52.384Z,28.17
2018-11-14T03:56:19.538Z,21.67
2018-11-14T03:58:46.697Z,22.80
2018-11-14T04:01:13.872Z,11.57
2018-11-14T04:03:41.040Z,15.40
2018-11-14T04:06:08.206Z,16.40
2018-11-14T04:08:35.367Z,15.73
2018-11-14T04:11:02.546Z,11.80
2018-11-14T04:13:29.716Z,16.53
2018-11-14T04:15:56.874Z,14.83
2018-11-14T04:18:24.058Z,12.77
2018-11-14T04:20:51.227Z,11.17
2018-11-14T04:23:18.406Z,10.47
2018-11-14T04:25:45.558Z,13.53
2018-11-14T04:28:12.746Z,15.03
2018-11-14T04:30:39.916Z,18.50
2018-11-14T04:33:07.094Z,17.83
2018-11-14T04:35:34.298Z,33.07
2018-11-14T04:38:01.462Z,19.37
2018-11-14T04:40:28.628Z,27.33
2018-11-14T04:42:55.809Z,47.53
2018-11-14T04:45:24.801Z,20.20
2018-11-14T04:47:52.043Z,30.37
2018-11-14T04:50:22.070Z,24.07
2018-11-14T04:52:49.833Z,30.13
2018-11-14T04:55:18.017Z,40.17
2018-11-14T04:57:45.469Z,28.50
2018-11-14T05:00:13.546Z,36.70
2018-11-14T05:02:41.894Z,20.03
2018-11-14T05:05:10.708Z,26.70
2018-11-14T05:07:38.198Z,39.00
2018-11-14T05:10:06.360Z,15.53
2018-11-14T05:12:33.520Z,22.20
2018-11-14T05:15:00.707Z,19.83
2018-11-14T05:17:27.877Z,19.70
2018-11-14T05:19:55.029Z,17.73
2018-11-14T05:22:22.200Z,33.17
2018-11-14T05:24:49.414Z,16.37
2018-11-14T05:27:16.529Z,24.30
2018-11-14T05:29:43.680Z,24.63
2018-11-14T05:32:10.847Z,29.47
2018-11-14T05:34:38.006Z,25.93
2018-11-14T05:37:05.177Z,24.77
2018-11-14T05:39:32.382Z,30.67
2018-11-14T05:41:59.544Z,26.20
2018-11-14T05:44:26.741Z,33.63
2018-11-14T05:46:53.904Z,24.83
2018-11-14T05:49:21.070Z,30.23
2018-11-14T05:51:48.241Z,37.03
2018-11-14T05:54:15.425Z,31.10
2018-11-14T05:56:42.594Z,31.60
2018-11-14T05:59:09.741Z,31.90
2018-11-14T06:01:36.880Z,35.13
2018-11-14T06:04:04.195Z,24.90
2018-11-14T06:06:31.366Z,27.80
2018-11-14T06:08:58.503Z,34.73
2018-11-14T06:11:25.673Z,23.13
2018-11-14T06:13:53.133Z,29.60
2018-11-14T06:16:20.292Z,26.77
2018-11-14T06:18:47.434Z,27.73
2018-11-14T06:21:14.604Z,29.90
2018-11-14T06:23:41.826Z,25.53
2018-11-14T06:26:08.921Z,24.07
2018-11-14T06:28:36.058Z,21.27
2018-11-14T06:31:03.354Z,27.07
2018-11-14T06:33:30.484Z,24.13
2018-11-14T06:35:57.641Z,30.87
2018-11-14T06:38:24.774Z,21.67
2018-11-14T06:40:51.944Z,19.80
2018-11-14T06:43:19.138Z,23.67
2018-11-14T06:45:46.300Z,18.63
2018-11-14T06:48:13.482Z,16.83
2018-11-14T06:50:40.628Z,20.27
2018-11-14T06:53:07.780Z,23.17
2018-11-14T06:55:34.937Z,17.27
2018-11-14T06:58:02.137Z,17.53
2018-11-14T07:00:30.510Z,16.80
2018-11-14T07:02:58.410Z,19.03
2018-11-14T07:05:25.596Z,23.13
2018-11-14T07:07:52.717Z,15.20
2018-11-14T07:10:21.453Z,17.57
2018-11-14T07:12:48.584Z,17.07
2018-11-14T07:15:16.800Z,15.33
2018-11-14T07:17:44.713Z,20.37
2018-11-14T07:20:14.090Z,15.90
2018-11-14T07:22:41.718Z,23.53
2018-11-14T07:25:08.956Z,22.50
2018-11-14T07:27:36.115Z,21.07
2018-11-14T07:30:03.657Z,24.40
2018-11-14T07:32:31.329Z,19.77
2018-11-14T07:34:58.513Z,18.47
2018-11-14T07:37:25.733Z,21.47
2018-11-14T07:39:52.881Z,14.73
2018-11-14T07:42:20.105Z,15.63
2018-11-14T07:44:47.269Z,22.17
2018-11-14T07:47:14.441Z,13.53
2018-11-14T07:49:41.601Z,20.07
2018-11-14T07:52:08.745Z,22.03
2018-11-14T07:54:35.928Z,21.73
2018-11-14T07:57:03.081Z,16.23
2018-11-14T07:59:30.210Z,13.73
2018-11-14T08:01:57.404Z,17.57
2018-11-14T08:04:24.520Z,13.40
2018-11-14T08:06:51.703Z,16.80
2018-11-14T08:09:18.845Z,13.30
2018-11-14T08:11:46.060Z,17.50
2018-11-14T08:14:13.253Z,12.77
2018-11-14T08:16:40.401Z,19.40
2018-11-14T08:19:07.534Z,14.70
2018-11-14T08:21:34.677Z,19.13
2018-11-14T08:24:01.853Z,16.83
2018-11-14T08:26:28.978Z,15.93
2018-11-14T08:28:56.149Z,21.13
2018-11-14T08:31:23.349Z,28.37
2018-11-14T08:33:50.489Z,16.87
2018-11-14T08:36:18.415Z,20.60
2018-11-14T08:38:45.619Z,20.63
2018-11-14T08:41:12.904Z,21.77
2018-11-14T08:43:40.067Z,33.07
2018-11-14T08:46:07.264Z,30.87
2018-11-14T08:48:34.430Z,24.60
2018-11-14T08:51:01.694Z,21.47
2018-11-14T08:53:28.888Z,34.37
2018-11-14T08:55:56.073Z,27.17
2018-11-14T08:58:23.311Z,19.70
2018-11-14T09:00:52.164Z,32.83
2018-11-14T09:03:19.330Z,18.67
2018-11-14T09:05:46.552Z,14.20
2018-11-14T09:08:13.838Z,26.37
2018-11-14T09:10:41.192Z,18.37
2018-11-14T09:13:12.163Z,19.90
2018-11-14T09:15:39.351Z,22.97
2018-11-14T09:18:06.582Z,28.30
2018-11-14T09:20:33.710Z,53.73
2018-11-14T09:23:00.980Z,29.33
2018-11-14T09:25:29.333Z,26.23
2018-11-14T09:27:56.750Z,30.30
2018-11-14T09:30:24.740Z,26.30
2018-11-14T09:32:51.914Z,20.57
2018-11-14T09:35:20.192Z,21.07
2018-11-14T09:37:47.380Z,22.27
2018-11-14T09:40:15.781Z,26.60
2018-11-14T09:42:42.968Z,18.70
2018-11-14T09:45:13.977Z,13.50
2018-11-14T09:47:41.341Z,21.03
2018-11-14T09:50:09.825Z,18.90
2018-11-14T09:52:37.270Z,12.90
2018-11-14T09:55:06.249Z,13.57
2018-11-14T09:57:33.412Z,10.80
2018-11-14T10:00:00.650Z,12.10
2018-11-14T10:02:27.917Z,16.73
2018-11-14T10:04:55.120Z,9.27
2018-11-14T10:07:22.325Z,8.00
2018-11-14T10:09:50.220Z,12.63
2018-11-14T10:12:17.506Z,16.77
2018-11-14T10:14:44.673Z,14.73
2018-11-14T10:17:11.881Z,10.10
2018-11-14T10:19:39.062Z,11.20
2018-11-14T10:22:06.244Z,11.20
2018-11-14T10:24:33.393Z,10.17
2018-11-14T10:27:00.564Z,11.53
2018-11-14T10:29:27.725Z,12.83
2018-11-14T10:31:54.867Z,9.10
2018-11-14T10:34:22.068Z,8.87
2018-11-14T10:36:49.248Z,8.33
2018-11-14T10:39:16.417Z,7.80
2018-11-14T10:41:43.601Z,10.67
2018-11-14T10:44:10.796Z,10.73
2018-11-14T10:46:37.963Z,11.10
2018-11-14T10:49:05.313Z,10.80
2018-11-14T10:51:32.497Z,12.60
2018-11-14T10:53:59.697Z,11.00
2018-11-14T10:56:26.848Z,7.53
2018-11-14T10:58:54.049Z,10.33
2018-11-14T11:01:27.037Z,9.67
2018-11-14T11:04:00.025Z,11.37
2018-11-14T11:06:34.845Z,8.27
2018-11-14T11:09:08.593Z,10.47
2018-11-14T11:11:41.561Z,9.27
2018-11-14T11:14:14.547Z,9.47
2018-11-14T11:16:47.916Z,10.70
2018-11-14T11:19:17.470Z,8.07
2018-11-14T11:21:45.237Z,10.30
2018-11-14T11:24:13.161Z,10.93
2018-11-14T11:26:40.328Z,11.80
2018-11-14T11:29:08.929Z,10.43
2018-11-14T11:31:36.113Z,9.90
2018-11-14T11:34:03.433Z,11.90
2018-11-14T11:36:30.564Z,9.23
2018-11-14T11:38:57.712Z,12.50
2018-11-14T11:41:25.179Z,11.10
2018-11-14T11:43:52.349Z,9.40
2018-11-14T11:46:19.478Z,11.50
2018-11-14T11:48:46.627Z,12.63
2018-11-14T11:51:13.830Z,11.83
2018-11-14T11:53:40.951Z,12.07
2018-11-14T11:56:08.135Z,11.40
2018-11-14T11:58:35.297Z,9.73
2018-11-14T12:01:02.485Z,12.57
2018-11-14T12:03:29.692Z,17.90
2018-11-14T12:05:56.910Z,15.50
2018-11-14T12:08:23.986Z,13.70
2018-11-14T12:10:51.197Z,12.00
2018-11-14T12:13:18.313Z,13.53
2018-11-14T12:15:45.457Z,14.00
2018-11-14T12:18:12.718Z,12.77
2018-11-14T12:20:39.899Z,11.50
2018-11-14T12:23:07.126Z,10.37
2018-11-14T12:25:34.320Z,12.13
2018-11-14T12:28:01.493Z,12.70
2018-11-14T12:30:28.716Z,14.33
2018-11-14T12:32:55.778Z,13.97
2018-11-14T12:35:22.972Z,12.57
2018-11-14T12:37:50.080Z,9.67
2018-11-14T12:40:17.253Z,11.03
2018-11-14T12:42:44.412Z,10.97
2018-11-14T12:45:12.904Z,12.47
2018-11-14T12:47:40.172Z,10.63
2018-11-14T12:50:07.943Z,10.33
2018-11-14T12:52:35.280Z,12.20
2018-11-14T12:55:02.617Z,13.27
2018-11-14T12:57:29.801Z,11.40
2018-11-14T12:59:57.028Z,10.27
2018-11-14T13:02:24.142Z,12.07
2018-11-14T13:04:51.290Z,12.10
2018-11-14T13:07:18.438Z,13.40
2018-11-14T13:09:45.605Z,12.27
2018-11-14T13:12:12.768Z,10.57
2018-11-14T13:14:39.949Z,11.80
2018-11-14T13:17:07.101Z,14.77
2018-11-14T13:19:34.280Z,12.47
2018-11-14T13:22:01.461Z,11.23
2018-11-14T13:24:28.649Z,12.10
2018-11-14T13:26:55.805Z,11.87
2018-11-14T13:29:23.808Z,11.43
2018-11-14T13:31:50.988Z,13.63
2018-11-14T13:34:18.364Z,10.07
2018-11-14T13:36:45.540Z,12.17
2018-11-14T13:39:12.717Z,9.97
2018-11-14T13:41:40.148Z,11.97
2018-11-14T13:44:07.298Z,12.43
2018-11-14T13:46:34.469Z,9.90
2018-11-14T13:49:01.753Z,9.97
2018-11-14T13:51:28.821Z,11.73
2018-11-14T13:53:56.057Z,10.77
2018-11-14T13:56:23.205Z,10.67
2018-11-14T13:58:50.373Z,10.77
2018-11-14T14:01:17.687Z,9.27
2018-11-14T14:03:44.797Z,9.87
2018-11-14T14:06:12.073Z,11.83
2018-11-14T14:08:39.223Z,10.47
2018-11-14T14:11:06.405Z,11.67
2018-11-14T14:13:36.689Z,11.63
2018-11-14T14:16:03.880Z,9.30
2018-11-14T14:18:31.062Z,9.97
2018-11-14T14:20:58.244Z,10.77
2018-11-14T14:23:25.395Z,12.17
2018-11-14T14:25:52.568Z,14.83
2018-11-14T14:28:19.733Z,12.07
2018-11-14T14:30:46.980Z,13.67
2018-11-14T14:33:14.072Z,15.43
2018-11-14T14:35:41.215Z,12.17
2018-11-14T14:38:08.417Z,12.80
2018-11-14T14:40:35.542Z,11.07
2018-11-14T14:43:02.719Z,11.63
2018-11-14T14:45:29.877Z,10.73
2018-11-14T14:47:57.003Z,11.47
2018-11-14T14:50:24.171Z,11.73
2018-11-14T14:52:51.315Z,14.70
2018-11-14T14:55:20.033Z,13.43
2018-11-14T14:57:47.589Z,15.50
2018-11-14T15:00:27.889Z,16.03
2018-11-14T15:02:55.058Z,11.37
2018-11-14T15:05:22.245Z,17.93
2018-11-14T15:07:49.395Z,13.70
2018-11-14T15:10:19.004Z,12.53
2018-11-14T15:12:46.172Z,13.97
2018-11-14T15:15:13.837Z,13.17
2018-11-14T15:17:41.189Z,12.23
2018-11-14T15:20:10.365Z,13.47
2018-11-14T15:22:37.570Z,17.67
2018-11-14T15:25:05.645Z,12.53
2018-11-14T15:27:32.810Z,13.37
2018-11-14T15:30:00.072Z,11.10
2018-11-14T15:32:27.241Z,12.03
2018-11-14T15:34:54.414Z,13.53
2018-11-14T15:37:21.572Z,11.50
2018-11-14T15:39:48.742Z,10.87
2018-11-14T15:42:15.955Z,12.67
2018-11-14T15:44:43.118Z,13.87
2018-11-14T15:47:10.286Z,13.67
2018-11-14T15:49:37.468Z,12.53
2018-11-14T15:52:05.262Z,14.33
2018-11-14T15:54:32.429Z,17.20
2018-11-14T15:56:59.600Z,15.50
2018-11-14T15:59:26.782Z,13.20
2018-11-14T16:01:53.949Z,13.70
2018-11-14T16:04:21.149Z,12.13
2018-11-14T16:06:48.617Z,12.40
2018-11-14T16:09:15.793Z,15.63
2018-11-14T16:11:42.953Z,11.67
2018-11-14T16:14:10.126Z,11.40
2018-11-14T16:16:37.275Z,12.47
2018-11-14T16:19:04.632Z,12.70
2018-11-14T16:21:31.792Z,12.70
2018-11-14T16:23:58.959Z,13.30
2018-11-14T16:26:26.129Z,13.83
2018-11-14T16:28:53.269Z,11.40
2018-11-14T16:31:20.433Z,14.27
2018-11-14T16:33:47.580Z,14.33
2018-11-14T16:36:14.726Z,21.93
2018-11-14T16:38:42.749Z,17.17
2018-11-14T16:41:09.904Z,15.43
2018-11-14T16:43:37.167Z,16.47
2018-11-14T16:46:04.345Z,19.50
2018-11-14T16:48:31.482Z,17.30
2018-11-14T16:50:58.641Z,16.07
2018-11-14T16:53:25.803Z,13.63
2018-11-14T16:55:53.013Z,18.43
2018-11-14T16:58:20.177Z,20.63
2018-11-14T17:00:47.357Z,18.07
2018-11-14T17:03:14.625Z,22.93
2018-11-14T17:05:41.854Z,21.77
2018-11-14T17:08:09.017Z,19.77
2018-11-14T17:10:36.253Z,21.43
2018-11-14T17:13:03.609Z,18.40
2018-11-14T17:15:30.965Z,18.37
2018-11-14T17:17:58.386Z,19.73
2018-11-14T17:20:26.043Z,18.63
2018-11-14T17:22:53.973Z,20.93
2018-11-14T17:25:21.223Z,21.03
2018-11-14T17:27:48.985Z,28.90
2018-11-14T17:30:18.417Z,27.13
2018-11-14T17:32:45.908Z,20.27
2018-11-14T17:35:13.790Z,21.93
2018-11-14T17:37:41.987Z,18.97
2018-11-14T17:40:11.924Z,23.67
2018-11-14T17:42:39.807Z,44.77
2018-11-14T17:45:09.298Z,23.10
2018-11-14T17:47:37.059Z,24.57
2018-11-14T17:50:06.072Z,20.37
2018-11-14T17:52:33.409Z,19.70
2018-11-14T17:55:00.821Z,21.43
2018-11-14T17:57:28.126Z,23.80
2018-11-14T17:59:55.402Z,21.03
2018-11-14T18:02:23.127Z,21.60
2018-11-14T18:04:50.341Z,21.60
2018-11-14T18:07:17.575Z,21.00
2018-11-14T18:09:44.702Z,25.03
2018-11-14T18:12:11.888Z,30.30
2018-11-14T18:14:39.077Z,24.17
2018-11-14T18:17:06.184Z,22.00
2018-11-14T18:19:33.483Z,25.00
2018-11-14T18:22:00.644Z,28.53
2018-11-14T18:24:27.806Z,26.00
2018-11-14T18:26:54.978Z,39.77
2018-11-14T18:29:22.191Z,26.10
2018-11-14T18:31:49.358Z,26.47
2018-11-14T18:34:16.533Z,29.10
2018-11-14T18:36:43.711Z,25.93
2018-11-14T18:39:12.719Z,25.57
2018-11-14T18:41:39.916Z,48.80
2018-11-14T18:44:07.113Z,44.17
2018-11-14T18:46:34.299Z,29.03
2018-11-14T18:49:01.477Z,32.83
2018-11-14T18:51:28.662Z,37.67
2018-11-14T18:53:55.810Z,31.03
2018-11-14T18:56:22.980Z,39.30
2018-11-14T18:58:50.154Z,31.63
2018-11-14T19:01:17.321Z,30.70
2018-11-14T19:03:44.538Z,28.87
2018-11-14T19:06:11.714Z,28.40
2018-11-14T19:08:38.902Z,26.97
2018-11-14T19:11:06.098Z,30.97
2018-11-14T19:13:33.260Z,35.47
2018-11-14T19:16:00.640Z,33.10
2018-11-14T19:18:27.851Z,30.60
2018-11-14T19:20:55.033Z,31.33
2018-11-14T19:23:22.509Z,35.17
2018-11-14T19:25:49.690Z,33.10
2018-11-14T19:28:16.873Z,29.70
2018-11-14T19:30:44.220Z,37.17
2018-11-14T19:33:11.244Z,30.87
2018-11-14T19:35:38.522Z,29.40
2018-11-14T19:38:05.705Z,32.60
2018-11-14T19:40:34.205Z,30.40
2018-11-14T19:43:02.602Z,32.03
2018-11-14T19:45:31.570Z,32.17
2018-11-14T19:47:58.785Z,37.30
2018-11-14T19:50:26.245Z,32.20
2018-11-14T19:52:53.653Z,30.17
2018-11-14T19:55:22.088Z,32.90
2018-11-14T19:57:50.307Z,31.50
2018-11-14T20:00:20.109Z,31.90
2018-11-14T20:02:47.313Z,30.60
2018-11-14T20:05:15.330Z,38.80
2018-11-14T20:07:42.520Z,33.40
2018-11-14T20:10:11.916Z,35.23
2018-11-14T20:12:39.144Z,34.50
2018-11-14T20:15:07.524Z,31.80
2018-11-14T20:17:34.692Z,33.77
2018-11-14T20:20:02.128Z,31.30
2018-11-14T20:22:29.301Z,33.33
2018-11-14T20:24:56.482Z,33.90
2018-11-14T20:27:23.664Z,31.33
2018-11-14T20:29:50.840Z,35.10
2018-11-14T20:32:18.034Z,33.33
2018-11-14T20:34:45.450Z,32.50
2018-11-14T20:37:12.665Z,29.33
2018-11-14T20:39:39.823Z,35.03
2018-11-14T20:42:07.085Z,32.10
2018-11-14T20:44:34.289Z,28.70
2018-11-14T20:47:01.477Z,33.70
2018-11-14T20:49:28.722Z,32.57
2018-11-14T20:51:55.897Z,37.20
2018-11-14T20:54:23.069Z,32.27
2018-11-14T20:56:50.252Z,29.77
2018-11-14T20:59:17.438Z,32.23
2018-11-14T21:01:45.696Z,33.17
2018-11-14T21:04:12.923Z,29.53
2018-11-14T21:06:40.112Z,31.73
2018-11-14T21:09:08.282Z,30.63
2018-11-14T21:11:35.502Z,30.20
2018-11-14T21:14:02.693Z,30.53
2018-11-14T21:16:29.879Z,29.67
2018-11-14T21:18:57.042Z,29.73
2018-11-14T21:21:24.367Z,29.53
2018-11-14T21:23:51.735Z,28.43
2018-11-14T21:26:18.916Z,30.33
2018-11-14T21:28:46.100Z,30.33
2018-11-14T21:31:13.266Z,28.17
2018-11-14T21:33:40.542Z,32.23
2018-11-14T21:36:07.718Z,29.13
2018-11-14T21:38:34.895Z,30.73
2018-11-14T21:41:02.061Z,30.33
2018-11-14T21:43:29.295Z,30.03
2018-11-14T21:45:56.408Z,29.33
2018-11-14T21:48:23.604Z,26.70
2018-11-14T21:50:50.851Z,26.83
2018-11-14T21:53:18.090Z,32.33
2018-11-14T21:55:45.221Z,29.33
2018-11-14T21:58:12.577Z,26.90
2018-11-14T22:00:40.291Z,24.50
2018-11-14T22:03:07.818Z,26.93
2018-11-14T22:05:35.307Z,28.03
2018-11-14T22:08:02.657Z,30.23
2018-11-14T22:10:29.837Z,28.40
2018-11-14T22:12:56.973Z,27.20
2018-11-14T22:15:25.191Z,25.60
2018-11-14T22:17:52.553Z,25.87
2018-11-14T22:20:21.131Z,26.80
2018-11-14T22:22:48.590Z,27.37
2018-11-14T22:25:17.066Z,23.13
2018-11-14T22:27:44.345Z,26.03
2018-11-14T22:30:14.534Z,27.63
2018-11-14T22:32:41.809Z,24.07
2018-11-14T22:35:10.551Z,25.17
2018-11-14T22:37:37.833Z,27.07
2018-11-14T22:40:07.613Z,27.47
2018-11-14T22:42:34.745Z,27.53
2018-11-14T22:45:01.933Z,24.67
2018-11-14T22:47:29.071Z,21.93
2018-11-14T22:49:56.221Z,23.87
2018-11-14T22:52:23.373Z,26.47
2018-11-14T22:54:50.533Z,27.10
2018-11-14T22:57:17.661Z,24.10
2018-11-14T22:59:44.817Z,23.37
2018-11-14T23:02:11.989Z,26.60
2018-11-14T23:04:39.109Z,25.70
2018-11-14T23:07:06.255Z,23.67
2018-11-14T23:09:33.400Z,23.97
2018-11-14T23:12:00.557Z,25.67
2018-11-14T23:14:27.724Z,24.27
2018-11-14T23:16:54.872Z,23.00
2018-11-14T23:19:22.061Z,24.90
2018-11-14T23:21:49.177Z,25.03
2018-11-14T23:24:16.340Z,24.20
2018-11-14T23:26:43.493Z,26.00
2018-11-14T23:29:10.660Z,28.70
2018-11-14T23:31:37.821Z,23.80
2018-11-14T23:34:05.103Z,27.57
2018-11-14T23:36:32.277Z,25.23
2018-11-14T23:38:59.440Z,25.50
2018-11-14T23:41:26.598Z,25.67
2018-11-14T23:43:53.776Z,28.73
2018-11-14T23:46:20.933Z,29.00
2018-11-14T23:48:48.134Z,27.60
2018-11-14T23:51:15.345Z,27.07
2018-11-14T23:53:42.525Z,27.17
2018-11-14T23:56:09.729Z,27.87
2018-11-14T23:58:36.887Z,27.67
